createdAt,value
2019-01-27T00:00:10.684Z,988.99
2019-01-27T00:01:11.069Z,988.92
2019-01-27T00:02:11.711Z,988.93
2019-01-27T00:03:12.014Z,988.97
2019-01-27T00:04:12.170Z,988.92
2019-01-27T00:05:12.356Z,988.86
2019-01-27T00:06:12.528Z,988.77
2019-01-27T00:07:12.654Z,988.89
2019-01-27T00:08:13.724Z,988.76
2019-01-27T00:09:12.907Z,988.82
2019-01-27T00:10:13.031Z,988.73
2019-01-27T00:11:13.135Z,988.77
2019-01-27T00:12:13.208Z,988.72
2019-01-27T00:13:13.309Z,988.68
2019-01-27T00:14:13.363Z,988.68
2019-01-27T00:15:13.441Z,988.67
2019-01-27T00:16:13.508Z,988.67
2019-01-27T00:17:13.573Z,988.61
2019-01-27T00:18:13.641Z,988.46
2019-01-27T00:19:13.746Z,988.48
2019-01-27T00:20:13.880Z,988.43
2019-01-27T00:21:14.070Z,988.44
2019-01-27T00:22:14.167Z,988.33
2019-01-27T00:23:14.261Z,988.45
2019-01-27T00:24:14.369Z,988.37
2019-01-27T00:25:14.478Z,988.37
2019-01-27T00:26:14.565Z,988.33
2019-01-27T00:27:14.632Z,988.27
2019-01-27T00:28:14.697Z,988.31
2019-01-27T00:29:14.795Z,988.29
2019-01-27T00:30:14.916Z,988.23
2019-01-27T00:31:15.267Z,988.22
2019-01-27T00:32:15.033Z,988.34
2019-01-27T00:33:15.281Z,988.19
2019-01-27T00:34:16.008Z,988.15
2019-01-27T00:35:16.089Z,988.10
2019-01-27T00:36:16.119Z,988.07
2019-01-27T00:37:16.153Z,987.96
2019-01-27T00:38:16.151Z,987.97
2019-01-27T00:39:16.435Z,987.93
2019-01-27T00:40:17.027Z,987.91
2019-01-27T00:41:16.822Z,987.95
2019-01-27T00:42:17.335Z,987.84
2019-01-27T00:43:17.277Z,987.84
2019-01-27T00:44:17.553Z,987.82
2019-01-27T00:45:18.105Z,987.77
2019-01-27T00:46:17.891Z,987.76
2019-01-27T00:47:18.152Z,987.79
2019-01-27T00:48:18.442Z,987.79
2019-01-27T00:49:18.694Z,987.68
2019-01-27T00:50:19.013Z,987.64
2019-01-27T00:51:19.322Z,987.69
2019-01-27T00:52:19.830Z,987.68
2019-01-27T00:53:19.585Z,987.64
2019-01-27T00:54:19.855Z,987.68
2019-01-27T00:55:20.138Z,987.63
2019-01-27T00:56:20.512Z,987.64
2019-01-27T00:57:20.755Z,987.57
2019-01-27T00:58:21.132Z,987.56
2019-01-27T00:59:21.421Z,987.60
2019-01-27T01:00:21.686Z,987.47
2019-01-27T01:01:21.901Z,987.47
2019-01-27T01:02:22.262Z,987.31
2019-01-27T01:03:22.647Z,987.32
2019-01-27T01:04:23.005Z,987.36
2019-01-27T01:05:23.258Z,987.31
2019-01-27T01:06:23.516Z,987.31
2019-01-27T01:07:23.829Z,987.32
2019-01-27T01:08:24.186Z,987.29
2019-01-27T01:09:24.599Z,987.28
2019-01-27T01:10:24.845Z,987.16
2019-01-27T01:11:25.300Z,987.24
2019-01-27T01:12:25.878Z,987.19
2019-01-27T01:13:25.987Z,987.16
2019-01-27T01:14:26.058Z,987.19
2019-01-27T01:15:26.169Z,987.14
2019-01-27T01:16:26.288Z,987.17
2019-01-27T01:17:26.439Z,987.18
2019-01-27T01:18:26.555Z,987.01
2019-01-27T01:19:26.660Z,987.05
2019-01-27T01:20:26.771Z,986.99
2019-01-27T01:21:26.875Z,987.10
2019-01-27T01:22:27.039Z,986.99
2019-01-27T01:23:27.187Z,986.93
2019-01-27T01:24:27.298Z,986.91
2019-01-27T01:25:27.412Z,986.88
2019-01-27T01:26:27.509Z,986.93
2019-01-27T01:27:27.655Z,986.85
2019-01-27T01:28:27.836Z,986.84
2019-01-27T01:29:27.972Z,986.83
2019-01-27T01:30:28.156Z,986.78
2019-01-27T01:31:28.266Z,986.83
2019-01-27T01:32:28.437Z,986.71
2019-01-27T01:33:28.498Z,986.68
2019-01-27T01:34:28.663Z,986.72
2019-01-27T01:35:28.907Z,986.68
2019-01-27T01:36:29.113Z,986.70
2019-01-27T01:37:29.431Z,986.71
2019-01-27T01:38:29.489Z,986.66
2019-01-27T01:39:29.559Z,986.65
2019-01-27T01:40:29.675Z,986.55
2019-01-27T01:41:29.745Z,986.59
2019-01-27T01:43:29.876Z,986.55
2019-01-27T01:44:29.940Z,986.55
2019-01-27T01:45:30.001Z,986.46
2019-01-27T01:46:30.320Z,986.52
2019-01-27T01:47:30.385Z,986.52
2019-01-27T01:48:30.458Z,986.42
2019-01-27T01:49:30.517Z,986.42
2019-01-27T01:50:30.954Z,986.39
2019-01-27T01:51:30.924Z,986.37
2019-01-27T01:52:31.695Z,986.36
2019-01-27T01:53:31.611Z,986.37
2019-01-27T01:54:31.925Z,986.31
2019-01-27T01:55:32.146Z,986.30
2019-01-27T01:56:32.533Z,986.31
2019-01-27T01:57:32.799Z,986.27
2019-01-27T01:58:33.076Z,986.20
2019-01-27T01:59:33.345Z,986.16
2019-01-27T02:00:33.600Z,986.13
2019-01-27T02:01:33.876Z,986.16
2019-01-27T02:02:34.137Z,986.12
2019-01-27T02:03:34.402Z,986.06
2019-01-27T02:04:34.668Z,986.07
2019-01-27T02:05:35.035Z,986.04
2019-01-27T02:06:35.290Z,986.02
2019-01-27T02:07:35.776Z,986.00
2019-01-27T02:08:35.777Z,985.99
2019-01-27T02:09:36.021Z,985.85
2019-01-27T02:10:36.322Z,985.86
2019-01-27T02:11:36.817Z,985.86
2019-01-27T02:12:37.083Z,985.91
2019-01-27T02:13:37.363Z,985.81
2019-01-27T02:14:37.751Z,985.67
2019-01-27T02:15:38.023Z,985.70
2019-01-27T02:16:38.192Z,985.76
2019-01-27T02:17:38.436Z,985.61
2019-01-27T02:18:38.830Z,985.63
2019-01-27T02:19:39.283Z,985.64
2019-01-27T02:20:39.783Z,985.54
2019-01-27T02:21:39.767Z,985.47
2019-01-27T02:22:40.048Z,985.50
2019-01-27T02:23:40.666Z,985.49
2019-01-27T02:24:40.755Z,985.47
2019-01-27T02:25:40.822Z,985.51
2019-01-27T02:26:40.963Z,985.32
2019-01-27T02:27:41.082Z,985.42
2019-01-27T02:28:41.199Z,985.40
2019-01-27T02:29:41.331Z,985.38
2019-01-27T02:30:41.482Z,985.25
2019-01-27T02:31:41.595Z,985.38
2019-01-27T02:32:41.727Z,985.31
2019-01-27T02:33:41.897Z,985.21
2019-01-27T02:34:42.007Z,985.22
2019-01-27T02:35:42.104Z,985.26
2019-01-27T02:36:42.216Z,985.19
2019-01-27T02:37:42.375Z,985.14
2019-01-27T02:38:42.493Z,985.15
2019-01-27T02:39:42.641Z,985.17
2019-01-27T02:40:42.767Z,985.10
2019-01-27T02:41:42.887Z,985.06
2019-01-27T02:42:42.988Z,984.96
2019-01-27T02:43:43.047Z,984.91
2019-01-27T02:44:43.096Z,984.95
2019-01-27T02:45:43.143Z,984.92
2019-01-27T02:46:43.227Z,984.96
2019-01-27T02:47:43.300Z,984.89
2019-01-27T02:48:43.375Z,984.97
2019-01-27T02:49:43.447Z,984.91
2019-01-27T02:50:43.521Z,984.86
2019-01-27T02:51:43.552Z,984.82
2019-01-27T02:52:43.596Z,984.85
2019-01-27T02:53:43.741Z,984.81
2019-01-27T02:54:43.864Z,984.83
2019-01-27T02:55:44.039Z,984.82
2019-01-27T02:56:44.179Z,984.75
2019-01-27T02:57:44.249Z,984.78
2019-01-27T02:58:44.437Z,984.66
2019-01-27T02:59:44.494Z,984.78
2019-01-27T03:00:44.576Z,984.66
2019-01-27T03:01:44.694Z,984.76
2019-01-27T03:02:44.793Z,984.72
2019-01-27T03:03:44.841Z,984.65
2019-01-27T03:04:44.956Z,984.65
2019-01-27T03:05:45.109Z,984.62
2019-01-27T03:06:45.035Z,984.67
2019-01-27T03:07:45.725Z,984.54
2019-01-27T03:08:45.816Z,984.65
2019-01-27T03:09:46.058Z,984.51
2019-01-27T03:10:45.973Z,984.42
2019-01-27T03:11:46.899Z,984.54
2019-01-27T03:12:46.702Z,984.45
2019-01-27T03:13:46.972Z,984.42
2019-01-27T03:14:47.238Z,984.44
2019-01-27T03:15:47.485Z,984.40
2019-01-27T03:16:47.764Z,984.34
2019-01-27T03:17:48.224Z,984.38
2019-01-27T03:18:48.498Z,984.36
2019-01-27T03:19:48.769Z,984.35
2019-01-27T03:20:49.042Z,984.25
2019-01-27T03:21:49.486Z,984.25
2019-01-27T03:22:49.929Z,984.30
2019-01-27T03:23:50.383Z,984.22
2019-01-27T03:24:50.659Z,984.20
2019-01-27T03:25:50.932Z,984.16
2019-01-27T03:26:51.175Z,984.16
2019-01-27T03:27:51.586Z,984.14
2019-01-27T03:28:51.844Z,984.05
2019-01-27T03:29:52.101Z,984.11
2019-01-27T03:30:52.370Z,984.09
2019-01-27T03:31:52.902Z,984.10
2019-01-27T03:32:52.649Z,984.13
2019-01-27T03:33:52.981Z,984.06
2019-01-27T03:34:53.335Z,984.03
2019-01-27T03:35:53.833Z,984.01
2019-01-27T03:36:54.082Z,983.99
2019-01-27T03:37:54.389Z,983.97
2019-01-27T03:38:54.922Z,983.94
2019-01-27T03:39:54.743Z,984.01
2019-01-27T03:40:55.223Z,984.02
2019-01-27T03:41:55.846Z,983.98
2019-01-27T03:42:55.939Z,983.87
2019-01-27T03:43:56.067Z,983.93
2019-01-27T03:44:56.160Z,983.88
2019-01-27T03:45:56.351Z,983.89
2019-01-27T03:46:56.487Z,983.90
2019-01-27T03:47:56.596Z,983.88
2019-01-27T03:48:56.700Z,983.89
2019-01-27T03:49:56.867Z,983.81
2019-01-27T03:50:56.990Z,983.86
2019-01-27T03:51:57.097Z,983.80
2019-01-27T03:52:57.231Z,983.74
2019-01-27T03:53:57.352Z,983.85
2019-01-27T03:55:57.503Z,983.77
2019-01-27T03:56:57.634Z,983.80
2019-01-27T03:57:57.794Z,983.76
2019-01-27T03:58:57.861Z,983.70
2019-01-27T03:59:57.998Z,983.73
2019-01-27T04:00:58.044Z,983.78
2019-01-27T04:01:58.149Z,983.67
2019-01-27T04:02:58.215Z,983.64
2019-01-27T04:03:58.265Z,983.59
2019-01-27T04:04:58.338Z,983.60
2019-01-27T04:05:58.427Z,983.58
2019-01-27T04:06:58.460Z,983.53
2019-01-27T04:07:58.523Z,983.55
2019-01-27T04:08:58.595Z,983.57
2019-01-27T04:09:58.686Z,983.59
2019-01-27T04:10:58.761Z,983.56
2019-01-27T04:11:58.898Z,983.49
2019-01-27T04:12:58.962Z,983.53
2019-01-27T04:13:59.053Z,983.47
2019-01-27T04:14:59.180Z,983.54
2019-01-27T04:15:59.269Z,983.47
2019-01-27T04:16:59.375Z,983.45
2019-01-27T04:17:59.480Z,983.45
2019-01-27T04:18:59.533Z,983.31
2019-01-27T04:19:59.626Z,983.46
2019-01-27T04:20:59.738Z,983.46
2019-01-27T04:21:59.797Z,983.40
2019-01-27T04:22:59.850Z,983.35
2019-01-27T04:23:59.900Z,983.42
2019-01-27T04:24:59.972Z,983.36
2019-01-27T04:26:00.070Z,983.37
2019-01-27T04:27:00.150Z,983.34
2019-01-27T04:28:00.229Z,983.31
2019-01-27T04:29:00.328Z,983.30
2019-01-27T04:30:00.507Z,983.26
2019-01-27T04:31:00.748Z,983.22
2019-01-27T04:32:00.804Z,983.21
2019-01-27T04:33:00.878Z,983.13
2019-01-27T04:34:00.941Z,983.21
2019-01-27T04:35:00.995Z,983.19
2019-01-27T04:36:01.824Z,983.16
2019-01-27T04:38:01.701Z,983.05
2019-01-27T04:39:01.897Z,983.10
2019-01-27T04:40:02.044Z,983.16
2019-01-27T04:41:02.483Z,983.07
2019-01-27T04:42:02.556Z,983.00
2019-01-27T04:43:02.645Z,983.04
2019-01-27T04:44:02.732Z,983.04
2019-01-27T04:45:02.801Z,983.03
2019-01-27T04:46:02.803Z,983.00
2019-01-27T04:47:02.596Z,982.95
2019-01-27T04:48:03.193Z,982.95
2019-01-27T04:50:03.628Z,982.95
2019-01-27T04:51:04.076Z,982.90
2019-01-27T04:52:04.148Z,982.90
2019-01-27T04:53:04.269Z,982.82
2019-01-27T04:54:04.094Z,982.90
2019-01-27T04:55:04.378Z,982.91
2019-01-27T04:56:05.078Z,982.97
2019-01-27T04:57:04.864Z,982.88
2019-01-27T04:58:05.205Z,982.91
2019-01-27T04:59:05.457Z,982.78
2019-01-27T05:00:05.899Z,982.90
2019-01-27T05:01:05.826Z,982.87
2019-01-27T05:02:06.078Z,982.81
2019-01-27T05:03:06.598Z,982.77
2019-01-27T05:04:06.472Z,982.82
2019-01-27T05:05:06.856Z,982.76
2019-01-27T05:06:07.088Z,982.83
2019-01-27T05:07:07.357Z,982.70
2019-01-27T05:08:07.624Z,982.66
2019-01-27T05:09:07.900Z,982.77
2019-01-27T05:10:08.157Z,982.77
2019-01-27T05:11:08.577Z,982.69
2019-01-27T05:12:08.860Z,982.68
2019-01-27T05:13:09.125Z,982.69
2019-01-27T05:14:09.476Z,982.63
2019-01-27T05:15:09.936Z,982.63
2019-01-27T05:16:09.928Z,982.63
2019-01-27T05:17:10.389Z,982.69
2019-01-27T05:18:11.012Z,982.76
2019-01-27T05:19:11.105Z,982.63
2019-01-27T05:20:11.237Z,982.61
2019-01-27T05:21:11.347Z,982.56
2019-01-27T05:22:11.494Z,982.63
2019-01-27T05:23:11.585Z,982.51
2019-01-27T05:24:11.695Z,982.55
2019-01-27T05:25:11.903Z,982.58
2019-01-27T05:26:12.078Z,982.61
2019-01-27T05:27:12.215Z,982.50
2019-01-27T05:28:12.334Z,982.53
2019-01-27T05:29:12.426Z,982.53
2019-01-27T05:30:12.575Z,982.50
2019-01-27T05:31:12.927Z,982.42
2019-01-27T05:32:12.999Z,982.50
2019-01-27T05:33:13.139Z,982.39
2019-01-27T05:34:13.179Z,982.41
2019-01-27T05:35:13.301Z,982.41
2019-01-27T05:36:13.397Z,982.29
2019-01-27T05:37:13.443Z,982.26
2019-01-27T05:38:13.494Z,982.18
2019-01-27T05:39:13.557Z,982.16
2019-01-27T05:40:13.635Z,982.09
2019-01-27T05:41:13.774Z,982.17
2019-01-27T05:42:13.837Z,982.11
2019-01-27T05:43:13.933Z,982.19
2019-01-27T05:44:14.024Z,982.17
2019-01-27T05:45:14.145Z,982.18
2019-01-27T05:46:14.236Z,982.20
2019-01-27T05:47:14.650Z,982.16
2019-01-27T05:48:14.709Z,982.16
2019-01-27T05:49:14.756Z,982.19
2019-01-27T05:50:14.882Z,982.13
2019-01-27T05:51:14.973Z,982.14
2019-01-27T05:52:15.019Z,982.06
2019-01-27T05:53:15.154Z,982.02
2019-01-27T05:54:15.261Z,982.03
2019-01-27T05:55:15.368Z,981.99
2019-01-27T05:56:15.437Z,982.01
2019-01-27T05:57:15.514Z,982.02
2019-01-27T05:58:15.580Z,982.03
2019-01-27T05:59:15.651Z,981.93
2019-01-27T06:00:15.766Z,981.89
2019-01-27T06:01:15.760Z,981.89
2019-01-27T06:02:15.828Z,981.88
2019-01-27T06:03:15.857Z,981.92
2019-01-27T06:04:16.418Z,981.83
2019-01-27T06:05:15.961Z,981.84
2019-01-27T06:06:16.060Z,981.78
2019-01-27T06:07:16.777Z,981.79
2019-01-27T06:08:16.242Z,981.82
2019-01-27T06:10:16.803Z,981.80
2019-01-27T06:11:16.744Z,981.80
2019-01-27T06:12:17.006Z,981.84
2019-01-27T06:13:17.267Z,981.73
2019-01-27T06:14:17.640Z,981.77
2019-01-27T06:15:17.902Z,981.71
2019-01-27T06:16:18.170Z,981.78
2019-01-27T06:17:18.429Z,981.80
2019-01-27T06:18:18.699Z,981.75
2019-01-27T06:19:18.693Z,981.74
2019-01-27T06:20:19.151Z,981.81
2019-01-27T06:21:19.479Z,981.74
2019-01-27T06:22:19.782Z,981.74
2019-01-27T06:23:20.051Z,981.70
2019-01-27T06:24:20.348Z,981.69
2019-01-27T06:25:20.859Z,981.66
2019-01-27T06:26:21.093Z,981.68
2019-01-27T06:28:21.556Z,981.70
2019-01-27T06:29:22.144Z,981.62
2019-01-27T06:30:21.886Z,981.64
2019-01-27T06:31:22.041Z,981.61
2019-01-27T06:32:22.293Z,981.58
2019-01-27T06:33:22.674Z,981.62
2019-01-27T06:34:22.784Z,981.49
2019-01-27T06:35:23.122Z,981.56
2019-01-27T06:36:23.436Z,981.46
2019-01-27T06:37:24.934Z,981.56
2019-01-27T06:38:23.951Z,981.51
2019-01-27T06:39:24.251Z,981.52
2019-01-27T06:40:24.692Z,981.51
2019-01-27T06:41:24.949Z,981.48
2019-01-27T06:42:25.450Z,981.40
2019-01-27T06:43:25.368Z,981.41
2019-01-27T06:44:25.965Z,981.46
2019-01-27T06:45:26.054Z,981.41
2019-01-27T06:46:26.138Z,981.42
2019-01-27T06:47:26.247Z,981.33
2019-01-27T06:48:26.334Z,981.34
2019-01-27T06:49:26.438Z,981.36
2019-01-27T06:50:26.532Z,981.32
2019-01-27T06:51:26.645Z,981.30
2019-01-27T06:52:26.753Z,981.37
2019-01-27T06:53:26.844Z,981.31
2019-01-27T06:54:27.045Z,981.35
2019-01-27T06:55:27.185Z,981.32
2019-01-27T06:56:27.305Z,981.31
2019-01-27T06:57:27.438Z,981.32
2019-01-27T06:58:27.541Z,981.37
2019-01-27T06:59:27.792Z,981.33
2019-01-27T07:00:28.054Z,981.29
2019-01-27T07:01:28.256Z,981.31
2019-01-27T07:02:29.682Z,981.33
2019-01-27T07:04:29.023Z,981.28
2019-01-27T07:05:29.235Z,981.26
2019-01-27T07:06:29.315Z,981.29
2019-01-27T07:07:29.316Z,981.19
2019-01-27T07:08:29.679Z,981.28
2019-01-27T07:09:29.872Z,981.23
2019-01-27T07:10:29.902Z,981.18
2019-01-27T07:11:29.984Z,981.17
2019-01-27T07:12:30.211Z,981.21
2019-01-27T07:13:30.420Z,981.20
2019-01-27T07:14:30.857Z,981.25
2019-01-27T07:15:31.002Z,981.21
2019-01-27T07:16:31.077Z,981.25
2019-01-27T07:17:31.153Z,981.14
2019-01-27T07:18:31.413Z,981.24
2019-01-27T07:19:31.688Z,981.18
2019-01-27T07:20:32.085Z,981.22
2019-01-27T07:21:32.551Z,981.15
2019-01-27T07:22:32.737Z,981.16
2019-01-27T07:23:33.240Z,981.16
2019-01-27T07:24:33.560Z,980.98
2019-01-27T07:25:33.891Z,981.02
2019-01-27T07:26:33.935Z,981.02
2019-01-27T07:27:34.359Z,981.00
2019-01-27T07:28:34.590Z,981.03
2019-01-27T07:29:34.776Z,980.97
2019-01-27T07:30:35.126Z,980.97
2019-01-27T07:31:35.055Z,980.98
2019-01-27T07:32:35.337Z,980.99
2019-01-27T07:33:36.137Z,980.95
2019-01-27T07:34:36.104Z,980.96
2019-01-27T07:35:36.238Z,980.93
2019-01-27T07:36:36.316Z,980.95
2019-01-27T07:37:36.993Z,980.87
2019-01-27T07:38:36.910Z,980.95
2019-01-27T07:39:37.108Z,980.93
2019-01-27T07:40:37.626Z,980.89
2019-01-27T07:41:38.008Z,980.91
2019-01-27T07:42:38.451Z,980.90
2019-01-27T07:43:38.868Z,980.92
2019-01-27T07:44:39.119Z,980.83
2019-01-27T07:45:39.159Z,980.81
2019-01-27T07:46:39.612Z,980.88
2019-01-27T07:47:39.593Z,980.79
2019-01-27T07:48:39.832Z,980.75
2019-01-27T07:49:40.563Z,980.73
2019-01-27T07:50:40.806Z,980.76
2019-01-27T07:51:41.149Z,980.85
2019-01-27T07:52:41.229Z,980.82
2019-01-27T07:53:41.289Z,980.82
2019-01-27T07:54:41.532Z,980.84
2019-01-27T07:55:41.998Z,980.79
2019-01-27T07:56:42.381Z,980.81
2019-01-27T07:57:42.652Z,980.75
2019-01-27T07:58:42.949Z,980.83
2019-01-27T07:59:43.008Z,980.77
2019-01-27T08:00:43.126Z,980.76
2019-01-27T08:01:43.173Z,980.61
2019-01-27T08:02:43.389Z,980.74
2019-01-27T08:03:43.525Z,980.71
2019-01-27T08:04:44.056Z,980.72
2019-01-27T08:05:44.366Z,980.74
2019-01-27T08:06:44.694Z,980.74
2019-01-27T08:07:44.793Z,980.72
2019-01-27T08:08:44.808Z,980.65
2019-01-27T08:09:45.096Z,980.68
2019-01-27T08:10:45.436Z,980.76
2019-01-27T08:11:45.863Z,980.72
2019-01-27T08:12:45.972Z,980.67
2019-01-27T08:13:46.324Z,980.63
2019-01-27T08:14:46.658Z,980.51
2019-01-27T08:15:46.625Z,980.69
2019-01-27T08:16:47.139Z,980.60
2019-01-27T08:17:47.445Z,980.63
2019-01-27T08:18:47.632Z,980.66
2019-01-27T08:19:47.979Z,980.65
2019-01-27T08:20:48.361Z,980.55
2019-01-27T08:21:48.511Z,980.62
2019-01-27T08:22:48.571Z,980.52
2019-01-27T08:23:48.735Z,980.48
2019-01-27T08:24:48.765Z,980.48
2019-01-27T08:25:49.214Z,980.48
2019-01-27T08:26:49.241Z,980.42
2019-01-27T08:27:49.226Z,980.43
2019-01-27T08:28:49.667Z,980.40
2019-01-27T08:29:49.687Z,980.39
2019-01-27T08:30:50.191Z,980.40
2019-01-27T08:31:50.815Z,980.42
2019-01-27T08:32:50.968Z,980.39
2019-01-27T08:33:51.188Z,980.41
2019-01-27T08:34:51.443Z,980.39
2019-01-27T08:35:51.537Z,980.44
2019-01-27T08:36:51.726Z,980.37
2019-01-27T08:37:51.923Z,980.35
2019-01-27T08:38:52.460Z,980.32
2019-01-27T08:39:52.805Z,980.40
2019-01-27T08:41:53.198Z,980.36
2019-01-27T08:42:53.222Z,980.34
2019-01-27T08:43:53.632Z,980.34
2019-01-27T08:44:54.061Z,980.29
2019-01-27T08:45:54.582Z,980.24
2019-01-27T08:46:54.588Z,980.33
2019-01-27T08:47:54.881Z,980.26
2019-01-27T08:48:55.347Z,980.25
2019-01-27T08:49:55.968Z,980.26
2019-01-27T08:50:56.091Z,980.25
2019-01-27T08:51:56.180Z,980.26
2019-01-27T08:52:56.328Z,980.19
2019-01-27T08:53:56.425Z,980.24
2019-01-27T08:54:56.532Z,980.20
2019-01-27T08:55:56.649Z,980.18
2019-01-27T08:56:56.765Z,980.17
2019-01-27T08:57:56.899Z,980.17
2019-01-27T08:58:57.003Z,980.18
2019-01-27T08:59:57.127Z,980.15
2019-01-27T09:00:57.257Z,980.15
2019-01-27T09:01:57.689Z,980.15
2019-01-27T09:02:57.965Z,980.16
2019-01-27T09:03:58.213Z,980.14
2019-01-27T09:04:58.466Z,980.18
2019-01-27T09:05:58.624Z,980.19
2019-01-27T09:06:58.839Z,980.18
2019-01-27T09:07:59.170Z,980.18
2019-01-27T09:08:59.438Z,980.18
2019-01-27T09:09:59.722Z,980.18
2019-01-27T09:10:59.961Z,980.18
2019-01-27T09:12:00.199Z,980.18
2019-01-27T09:13:00.236Z,980.17
2019-01-27T09:14:00.669Z,980.17
2019-01-27T09:15:01.129Z,980.17
2019-01-27T09:16:01.606Z,980.16
2019-01-27T09:17:01.423Z,980.15
2019-01-27T09:18:01.571Z,980.15
2019-01-27T09:19:01.916Z,980.14
2019-01-27T09:20:02.159Z,980.13
2019-01-27T09:21:02.577Z,980.11
2019-01-27T09:22:02.798Z,980.11
2019-01-27T09:23:03.044Z,980.09
2019-01-27T09:24:03.522Z,980.09
2019-01-27T09:25:03.841Z,980.06
2019-01-27T09:26:03.857Z,980.08
2019-01-27T09:27:04.157Z,980.07
2019-01-27T09:28:04.521Z,980.05
2019-01-27T09:29:04.631Z,980.05
2019-01-27T09:30:05.194Z,980.04
2019-01-27T09:31:05.125Z,980.00
2019-01-27T09:32:05.848Z,980.03
2019-01-27T09:33:06.006Z,980.02
2019-01-27T09:34:13.007Z,979.92
2019-01-27T09:35:06.876Z,979.93
2019-01-27T09:36:07.195Z,979.97
2019-01-27T09:37:07.610Z,979.97
2019-01-27T09:38:08.095Z,979.96
2019-01-27T09:39:08.259Z,979.94
2019-01-27T09:40:08.884Z,979.94
2019-01-27T09:41:08.669Z,979.95
2019-01-27T09:42:09.266Z,979.96
2019-01-27T09:43:09.182Z,979.95
2019-01-27T09:44:09.892Z,979.94
2019-01-27T09:45:09.840Z,979.94
2019-01-27T09:46:11.540Z,979.96
2019-01-27T09:47:10.909Z,979.95
2019-01-27T09:48:10.981Z,979.97
2019-01-27T09:49:11.281Z,979.97
2019-01-27T09:50:11.524Z,979.98
2019-01-27T09:51:11.813Z,979.97
2019-01-27T09:52:12.091Z,979.98
2019-01-27T09:53:12.407Z,979.97
2019-01-27T09:54:12.885Z,979.98
2019-01-27T09:55:12.958Z,979.98
2019-01-27T09:56:13.159Z,979.97
2019-01-27T09:57:13.289Z,979.95
2019-01-27T09:58:13.468Z,979.94
2019-01-27T09:59:14.402Z,979.93
2019-01-27T10:00:14.115Z,979.94
2019-01-27T10:01:14.604Z,979.93
2019-01-27T10:02:14.802Z,979.91
2019-01-27T10:03:15.124Z,979.92
2019-01-27T10:04:15.191Z,979.91
2019-01-27T10:05:15.696Z,979.92
2019-01-27T10:06:15.871Z,979.93
2019-01-27T10:07:16.258Z,979.93
2019-01-27T10:08:16.143Z,979.94
2019-01-27T10:09:16.294Z,979.96
2019-01-27T10:10:16.556Z,979.94
2019-01-27T10:11:16.632Z,979.95
2019-01-27T10:12:16.873Z,979.94
2019-01-27T10:13:17.068Z,979.92
2019-01-27T10:14:17.227Z,979.93
2019-01-27T10:15:18.415Z,979.94
2019-01-27T10:16:17.989Z,979.94
2019-01-27T10:17:18.352Z,979.94
2019-01-27T10:18:18.832Z,979.92
2019-01-27T10:19:19.118Z,979.91
2019-01-27T10:20:19.231Z,979.91
2019-01-27T10:21:19.147Z,979.90
2019-01-27T10:22:19.214Z,979.89
2019-01-27T10:23:19.525Z,979.89
2019-01-27T10:24:19.858Z,979.88
2019-01-27T10:25:20.306Z,979.88
2019-01-27T10:26:20.334Z,979.88
2019-01-27T10:27:21.016Z,979.86
2019-01-27T10:28:21.670Z,979.86
2019-01-27T10:29:21.531Z,979.83
2019-01-27T10:30:21.879Z,979.82
2019-01-27T10:31:21.756Z,979.82
2019-01-27T10:32:22.141Z,979.81
2019-01-27T10:33:22.251Z,979.80
2019-01-27T10:34:22.363Z,979.79
2019-01-27T10:35:22.717Z,979.78
2019-01-27T10:36:22.918Z,979.76
2019-01-27T10:37:22.911Z,979.73
2019-01-27T10:38:23.418Z,979.69
2019-01-27T10:39:23.566Z,979.68
2019-01-27T10:40:23.782Z,979.67
2019-01-27T10:41:24.260Z,979.66
2019-01-27T10:42:24.731Z,979.63
2019-01-27T10:43:25.111Z,979.60
2019-01-27T10:44:25.109Z,979.58
2019-01-27T10:45:25.865Z,979.56
2019-01-27T10:46:25.872Z,979.54
2019-01-27T10:47:25.905Z,979.52
2019-01-27T10:48:26.103Z,979.50
2019-01-27T10:49:26.411Z,979.50
2019-01-27T10:50:26.606Z,979.49
2019-01-27T10:51:27.136Z,979.48
2019-01-27T10:52:27.505Z,979.45
2019-01-27T10:53:34.603Z,979.46
2019-01-27T10:54:27.932Z,979.44
2019-01-27T10:55:28.141Z,979.44
2019-01-27T10:56:28.406Z,979.43
2019-01-27T10:57:28.567Z,979.44
2019-01-27T10:58:28.670Z,979.42
2019-01-27T10:59:28.657Z,979.41
2019-01-27T11:00:28.809Z,979.43
2019-01-27T11:01:29.131Z,979.41
2019-01-27T11:02:36.444Z,979.38
2019-01-27T11:03:29.871Z,979.36
2019-01-27T11:04:29.868Z,979.34
2019-01-27T11:05:30.299Z,979.26
2019-01-27T11:06:30.738Z,979.22
2019-01-27T11:07:30.833Z,979.21
2019-01-27T11:08:30.959Z,979.21
2019-01-27T11:09:31.127Z,979.23
2019-01-27T11:10:31.162Z,979.22
2019-01-27T11:11:31.325Z,979.21
2019-01-27T11:12:31.579Z,979.20
2019-01-27T11:13:31.503Z,979.16
2019-01-27T11:14:31.955Z,979.06
2019-01-27T11:15:33.432Z,979.07
2019-01-27T11:16:32.809Z,979.05
2019-01-27T11:17:33.051Z,979.04
2019-01-27T11:18:33.235Z,979.01
2019-01-27T11:19:33.327Z,979.01
2019-01-27T11:20:39.911Z,979.00
2019-01-27T11:21:33.940Z,978.97
2019-01-27T11:22:34.145Z,978.97
2019-01-27T11:23:34.756Z,978.96
2019-01-27T11:24:34.667Z,978.93
2019-01-27T11:25:35.319Z,978.89
2019-01-27T11:26:35.367Z,978.88
2019-01-27T11:27:35.636Z,978.87
2019-01-27T11:28:37.546Z,978.84
2019-01-27T11:29:37.455Z,978.85
2019-01-27T11:30:36.596Z,978.83
2019-01-27T11:31:36.984Z,978.80
2019-01-27T11:32:37.519Z,978.78
2019-01-27T11:33:37.190Z,978.74
2019-01-27T11:34:36.979Z,978.72
2019-01-27T11:35:37.405Z,978.71
2019-01-27T11:36:37.971Z,978.69
2019-01-27T11:37:38.381Z,978.66
2019-01-27T11:38:38.395Z,978.62
2019-01-27T11:39:38.592Z,978.60
2019-01-27T11:40:38.483Z,978.58
2019-01-27T11:41:38.540Z,978.57
2019-01-27T11:42:38.859Z,978.54
2019-01-27T11:43:39.281Z,978.54
2019-01-27T11:44:39.768Z,978.54
2019-01-27T11:45:39.786Z,978.54
2019-01-27T11:46:40.419Z,978.53
2019-01-27T11:47:40.746Z,978.52
2019-01-27T11:48:41.285Z,978.51
2019-01-27T11:49:41.720Z,978.51
2019-01-27T11:50:41.375Z,978.51
2019-01-27T11:51:41.772Z,978.50
2019-01-27T11:52:42.073Z,978.46
2019-01-27T11:53:42.272Z,978.44
2019-01-27T11:54:42.418Z,978.42
2019-01-27T11:55:42.562Z,978.40
2019-01-27T11:56:42.729Z,978.36
2019-01-27T11:57:42.848Z,978.35
2019-01-27T11:58:42.992Z,978.34
2019-01-27T11:59:43.080Z,978.29
2019-01-27T12:00:43.169Z,978.29
2019-01-27T12:01:43.626Z,978.27
2019-01-27T12:02:46.710Z,978.28
2019-01-27T12:03:43.864Z,978.28
2019-01-27T12:04:43.980Z,978.28
2019-01-27T12:05:44.500Z,978.27
2019-01-27T12:06:44.710Z,978.28
2019-01-27T12:07:44.765Z,978.27
2019-01-27T12:08:44.879Z,978.24
2019-01-27T12:09:45.003Z,978.25
2019-01-27T12:10:45.151Z,978.23
2019-01-27T12:11:45.273Z,978.21
2019-01-27T12:12:45.377Z,978.17
2019-01-27T12:13:45.615Z,978.16
2019-01-27T12:14:45.827Z,978.14
2019-01-27T12:15:46.016Z,978.11
2019-01-27T12:17:46.229Z,978.07
2019-01-27T12:18:46.238Z,978.06
2019-01-27T12:19:46.251Z,978.03
2019-01-27T12:20:46.541Z,978.02
2019-01-27T12:21:46.787Z,978.00
2019-01-27T12:22:47.345Z,977.98
2019-01-27T12:23:47.305Z,977.97
2019-01-27T12:24:47.576Z,977.94
2019-01-27T12:25:47.993Z,977.87
2019-01-27T12:26:48.456Z,977.86
2019-01-27T12:27:48.737Z,977.75
2019-01-27T12:28:49.169Z,977.78
2019-01-27T12:29:49.449Z,977.79
2019-01-27T12:30:49.782Z,977.82
2019-01-27T12:31:50.241Z,977.83
2019-01-27T12:32:50.656Z,977.82
2019-01-27T12:33:50.910Z,977.80
2019-01-27T12:34:51.441Z,977.81
2019-01-27T12:35:51.191Z,977.83
2019-01-27T12:36:51.595Z,977.88
2019-01-27T12:37:51.858Z,977.91
2019-01-27T12:38:52.266Z,977.93
2019-01-27T12:39:52.532Z,977.99